Time;durP1;ratioP1;P1;durP2;ratioP2;P2;SDS_P1;SDS_P2;PMS_P1;PMS_P2;Temp;Humidity;BMP_temperature;BMP_pressure;BME280_temperature;BME280_humidity;BME280_pressure;Samples;Min_cycle;Max_cycle;Signal;HPM_P1;HPM_P2
2022/08/07 00:00:22;;;;;;;8.02;6.28;;;13.20;99.90;;;;;;5040927;28;20411;-78
2022/08/07 00:02:48;;;;;;;6.90;5.55;;;13.10;99.90;;;;;;5043041;28;20034;-77
2022/08/07 00:05:13;;;;;;;5.97;5.28;;;13.10;99.90;;;;;;5044837;28;20040;-79
2022/08/07 00:07:39;;;;;;;6.45;5.40;;;13.00;99.90;;;;;;5044160;28;20045;-78
2022/08/07 00:10:05;;;;;;;5.40;4.70;;;13.00;99.90;;;;;;5036524;28;20415;-78
2022/08/07 00:12:30;;;;;;;6.35;5.10;;;13.00;99.90;;;;;;5046131;28;20171;-79
2022/08/07 00:14:57;;;;;;;5.68;4.82;;;13.00;99.90;;;;;;5050072;28;20489;-79
2022/08/07 00:17:22;;;;;;;5.93;4.93;;;13.10;99.90;;;;;;5051337;28;20044;-78
2022/08/07 00:19:48;;;;;;;6.40;5.18;;;13.00;99.90;;;;;;5034520;28;20061;-78
2022/08/07 00:22:15;;;;;;;6.05;4.65;;;12.90;99.90;;;;;;5034040;28;20037;-78
2022/08/07 00:24:40;;;;;;;6.35;4.80;;;12.80;99.90;;;;;;5030784;28;20046;-78
2022/08/07 00:27:06;;;;;;;5.78;4.32;;;12.70;99.90;;;;;;5033824;28;20132;-78
2022/08/07 00:29:32;;;;;;;6.00;4.68;;;12.60;99.90;;;;;;5029779;28;20087;-78
2022/08/07 00:31:58;;;;;;;6.00;4.65;;;12.60;99.90;;;;;;5034383;28;20036;-78
2022/08/07 00:34:27;;;;;;;5.72;5.05;;;12.70;99.90;;;;;;5033725;28;20037;-78
2022/08/07 00:36:53;;;;;;;6.80;5.32;;;12.60;99.90;;;;;;5034478;28;20560;-78
2022/08/07 00:39:19;;;;;;;6.95;5.03;;;12.60;99.90;;;;;;5034114;28;20037;-78
2022/08/07 00:41:53;;;;;;;5.43;4.20;;;12.60;99.90;;;;;;5030444;28;20041;-78
2022/08/07 00:44:18;;;;;;;4.28;3.75;;;12.60;99.90;;;;;;5032568;28;20033;-78
2022/08/07 00:46:44;;;;;;;5.90;3.80;;;12.60;99.90;;;;;;5029167;28;20148;-76
2022/08/07 00:49:10;;;;;;;5.95;4.65;;;12.50;99.90;;;;;;5015625;28;20492;-78
2022/08/07 00:51:36;;;;;;;6.53;4.50;;;12.50;99.90;;;;;;5031287;28;20033;-78
2022/08/07 00:54:02;;;;;;;6.30;4.47;;;12.40;99.90;;;;;;5033008;28;20034;-78
2022/08/07 00:56:28;;;;;;;5.97;4.75;;;12.50;99.90;;;;;;5033393;28;20045;-78
2022/08/07 00:58:55;;;;;;;6.70;4.90;;;12.50;99.90;;;;;;5033899;28;20041;-77
2022/08/07 01:01:21;;;;;;;6.97;4.97;;;12.40;99.90;;;;;;5032993;28;20041;-78
2022/08/07 01:03:48;;;;;;;6.50;4.80;;;12.30;99.90;;;;;;5033081;28;20060;-77
2022/08/07 01:06:15;;;;;;;6.85;5.22;;;12.20;99.90;;;;;;5031301;28;20080;-77
2022/08/07 01:08:41;;;;;;;6.72;5.00;;;12.20;99.90;;;;;;5031846;28;20118;-77
2022/08/07 01:11:07;;;;;;;6.32;5.25;;;12.20;99.90;;;;;;5032434;28;20041;-77
2022/08/07 01:13:34;;;;;;;6.30;4.72;;;12.20;99.90;;;;;;5031314;28;20036;-77
2022/08/07 01:16:01;;;;;;;6.72;5.10;;;12.20;99.90;;;;;;5032546;28;20041;-78
2022/08/07 01:18:28;;;;;;;6.95;4.90;;;12.20;99.90;;;;;;5033466;28;20045;-78
2022/08/07 01:21:08;;;;;;;7.68;4.95;;;12.10;99.90;;;;;;5034120;28;20041;-77
2022/08/07 01:23:34;;;;;;;9.07;4.95;;;12.00;99.90;;;;;;5041945;28;20167;-78
2022/08/07 01:26:00;;;;;;;6.47;5.40;;;12.00;99.90;;;;;;5035409;28;20120;-78
2022/08/07 01:28:27;;;;;;;6.57;5.00;;;12.00;99.90;;;;;;5032050;28;20037;-78
2022/08/07 01:30:54;;;;;;;7.35;5.25;;;12.10;99.90;;;;;;5031671;28;20037;-77
2022/08/07 01:33:20;;;;;;;6.90;4.90;;;12.10;99.90;;;;;;5031592;28;20038;-78
2022/08/07 01:35:46;;;;;;;7.45;5.15;;;12.20;99.90;;;;;;5023243;28;20029;-77
2022/08/07 01:38:12;;;;;;;5.85;4.78;;;12.20;99.90;;;;;;5032947;28;20037;-77
2022/08/07 01:40:39;;;;;;;6.05;4.72;;;12.20;99.90;;;;;;5032884;28;20045;-79
2022/08/07 01:43:05;;;;;;;8.43;4.93;;;12.20;99.90;;;;;;5031923;28;20049;-78
2022/08/07 01:45:32;;;;;;;6.18;4.88;;;12.20;99.90;;;;;;5031803;28;20081;-78
2022/08/07 01:47:58;;;;;;;6.30;4.57;;;12.20;99.90;;;;;;5031539;28;20037;-78
2022/08/07 01:50:25;;;;;;;7.32;5.15;;;12.10;99.90;;;;;;5027864;28;20073;-78
2022/08/07 01:52:55;;;;;;;7.40;5.22;;;12.00;99.90;;;;;;5031916;28;20040;-77
2022/08/07 01:55:26;;;;;;;6.57;4.82;;;11.90;99.90;;;;;;5031730;28;20041;-78
2022/08/07 01:57:56;;;;;;;5.47;4.47;;;11.90;99.90;;;;;;5032514;28;20038;-78
2022/08/07 02:00:28;;;;;;;5.85;4.93;;;11.80;99.90;;;;;;5032328;28;20037;-79
2022/08/07 02:02:58;;;;;;;5.40;4.63;;;11.80;99.90;;;;;;5031904;28;20110;-78
2022/08/07 02:05:35;;;;;;;7.97;5.10;;;11.80;99.90;;;;;;5031349;28;20041;-78
2022/08/07 02:08:06;;;;;;;5.97;4.93;;;11.70;99.90;;;;;;5050829;28;20044;-78
2022/08/07 02:10:33;;;;;;;6.95;5.28;;;11.70;99.90;;;;;;5032891;28;20052;-79
2022/08/07 02:13:01;;;;;;;6.90;5.38;;;11.60;99.90;;;;;;5032665;28;20059;-78
2022/08/07 02:15:29;;;;;;;6.95;4.97;;;11.50;99.90;;;;;;5031974;28;20048;-77
2022/08/07 02:17:56;;;;;;;6.68;5.13;;;11.60;99.90;;;;;;5032783;28;20526;-78
2022/08/07 02:20:23;;;;;;;7.35;5.30;;;11.50;99.90;;;;;;5032847;28;20052;-78
2022/08/07 02:22:51;;;;;;;9.15;5.85;;;11.50;99.90;;;;;;5033393;28;20520;-78
2022/08/07 02:25:18;;;;;;;6.10;5.25;;;11.50;99.90;;;;;;5041753;28;20043;-78
2022/08/07 02:27:46;;;;;;;6.97;5.47;;;11.50;99.90;;;;;;5039115;28;20112;-78
2022/08/07 02:30:12;;;;;;;7.43;5.40;;;11.50;99.90;;;;;;5038762;28;20486;-78
2022/08/07 02:32:38;;;;;;;7.53;5.80;;;11.40;99.90;;;;;;5040727;28;20040;-78
2022/08/07 02:35:06;;;;;;;8.80;5.93;;;11.30;99.90;;;;;;5036426;28;20053;-78
2022/08/07 02:37:34;;;;;;;7.68;5.57;;;11.30;99.90;;;;;;5037856;28;20043;-78
2022/08/07 02:40:03;;;;;;;7.40;6.18;;;11.20;99.90;;;;;;5040741;28;20048;-78
2022/08/07 02:42:31;;;;;;;7.43;5.68;;;11.20;99.90;;;;;;5040031;28;20044;-78
2022/08/07 02:44:58;;;;;;;9.23;5.90;;;11.20;99.90;;;;;;5040706;28;20033;-78
2022/08/07 02:47:24;;;;;;;8.05;6.30;;;11.20;99.90;;;;;;5039872;28;20075;-77
2022/08/07 02:49:50;;;;;;;8.40;5.88;;;11.20;99.90;;;;;;5042145;28;20065;-76
2022/08/07 02:52:22;;;;;;;7.63;6.13;;;11.20;99.90;;;;;;5040729;28;20091;-78
2022/08/07 02:54:49;;;;;;;7.28;5.88;;;11.20;99.90;;;;;;5037925;28;20041;-79
2022/08/07 02:57:17;;;;;;;7.68;5.78;;;11.10;99.90;;;;;;5045980;28;20159;-77
2022/08/07 02:59:47;;;;;;;6.80;5.53;;;11.00;99.90;;;;;;5044207;28;20087;-79
2022/08/07 03:02:14;;;;;;;8.70;5.80;;;11.10;99.90;;;;;;5035989;28;20044;-78
2022/08/07 03:04:42;;;;;;;7.50;5.90;;;11.00;99.90;;;;;;5046412;28;20087;-78
2022/08/07 03:07:08;;;;;;;8.30;5.95;;;11.00;99.90;;;;;;5043849;28;20066;-78
2022/08/07 03:09:34;;;;;;;7.70;6.00;;;11.00;99.90;;;;;;5043217;28;20078;-78
2022/08/07 03:12:04;;;;;;;6.63;5.13;;;10.90;99.90;;;;;;5043131;28;20037;-78
2022/08/07 03:14:31;;;;;;;7.47;5.70;;;10.90;99.90;;;;;;5042682;28;20038;-78
2022/08/07 03:16:57;;;;;;;6.60;5.05;;;10.80;99.90;;;;;;5045083;28;20061;-78
2022/08/07 03:19:23;;;;;;;7.13;5.70;;;10.80;99.90;;;;;;5039473;28;20110;-78
2022/08/07 03:21:51;;;;;;;7.97;5.60;;;10.80;99.90;;;;;;5039738;28;20037;-77
2022/08/07 03:24:17;;;;;;;8.60;5.57;;;10.90;99.90;;;;;;5041937;28;20075;-78
2022/08/07 03:26:44;;;;;;;7.38;5.30;;;10.90;99.90;;;;;;5040506;28;20040;-78
2022/08/07 03:29:12;;;;;;;7.47;5.95;;;11.00;99.90;;;;;;5043341;28;20045;-78
2022/08/07 03:31:38;;;;;;;7.80;5.60;;;10.90;99.90;;;;;;5045601;28;20044;-77
2022/08/07 03:34:06;;;;;;;8.55;5.72;;;10.90;99.90;;;;;;5035012;28;20041;-78
2022/08/07 03:36:33;;;;;;;7.45;5.70;;;10.90;99.90;;;;;;5040763;28;20045;-78
2022/08/07 03:39:12;;;;;;;8.70;6.00;;;10.90;99.90;;;;;;5038716;28;20128;-78
2022/08/07 03:41:39;;;;;;;7.35;5.55;;;10.80;99.90;;;;;;5040743;28;20181;-77
2022/08/07 03:44:05;;;;;;;8.30;5.95;;;10.80;99.90;;;;;;5040920;28;20051;-77
2022/08/07 03:46:32;;;;;;;8.05;5.72;;;10.80;99.90;;;;;;5039162;28;20045;-78
2022/08/07 03:48:58;;;;;;;9.23;6.05;;;10.80;99.90;;;;;;5042659;28;20116;-78
2022/08/07 03:51:26;;;;;;;8.10;5.68;;;10.80;99.90;;;;;;5044072;28;20717;-77
2022/08/07 03:53:51;;;;;;;8.20;5.35;;;10.70;99.90;;;;;;5043475;28;20581;-78
2022/08/07 03:56:20;;;;;;;6.30;5.35;;;10.70;99.90;;;;;;5047226;28;20120;-78
2022/08/07 03:58:48;;;;;;;9.25;5.35;;;10.70;99.90;;;;;;5038014;28;20050;-76
2022/08/07 04:01:16;;;;;;;7.28;5.20;;;10.70;99.90;;;;;;5046564;28;20075;-78
2022/08/07 04:03:42;;;;;;;5.68;4.63;;;10.70;99.90;;;;;;5044557;28;20120;-78
2022/08/07 04:06:09;;;;;;;8.40;5.18;;;10.70;99.90;;;;;;5043079;28;20128;-78
2022/08/07 04:08:35;;;;;;;5.90;4.38;;;10.80;99.90;;;;;;5044154;28;20127;-78
2022/08/07 04:11:01;;;;;;;5.55;4.40;;;10.80;99.90;;;;;;5044421;28;20037;-78
2022/08/07 04:13:27;;;;;;;5.68;4.10;;;10.80;99.90;;;;;;5041625;28;20029;-77
2022/08/07 04:15:54;;;;;;;6.45;4.35;;;10.80;99.90;;;;;;5043769;28;20087;-79
2022/08/07 04:18:19;;;;;;;5.70;4.60;;;10.70;99.90;;;;;;5039671;28;20132;-78
2022/08/07 04:20:46;;;;;;;5.88;4.30;;;10.70;99.90;;;;;;5043093;28;20101;-78
2022/08/07 04:23:12;;;;;;;7.53;5.18;;;10.70;99.90;;;;;;5037402;28;20563;-78
2022/08/07 04:25:40;;;;;;;6.70;4.80;;;10.70;99.90;;;;;;5037255;28;20037;-77
2022/08/07 04:28:07;;;;;;;5.90;4.45;;;10.70;99.90;;;;;;5043274;28;20041;-76
2022/08/07 04:30:35;;;;;;;7.53;4.90;;;10.70;99.90;;;;;;5039393;28;20036;-78
2022/08/07 04:33:07;;;;;;;7.07;4.35;;;10.60;99.90;;;;;;5041050;28;20438;-78
2022/08/07 04:35:33;;;;;;;6.65;4.40;;;10.70;99.90;;;;;;5040100;28;20509;-78
2022/08/07 04:37:58;;;;;;;5.85;4.60;;;10.70;99.90;;;;;;5041313;28;20048;-78
2022/08/07 04:40:24;;;;;;;7.00;4.75;;;10.80;99.90;;;;;;5042545;28;20056;-78
2022/08/07 04:42:49;;;;;;;7.05;4.38;;;10.80;99.90;;;;;;5042842;28;20041;-77
2022/08/07 04:45:16;;;;;;;5.82;4.18;;;10.90;99.90;;;;;;5038567;28;20564;-78
2022/08/07 04:48:25;;;;;;;6.07;4.63;;;10.90;99.90;;;;;;5040465;28;20040;-78
2022/08/07 04:51:09;;;;;;;5.50;4.40;;;11.00;99.90;;;;;;5003778;28;20103;-78
2022/08/07 04:53:52;;;;;;;5.80;4.40;;;11.00;99.90;;;;;;5041863;28;20511;-78
2022/08/07 04:56:23;;;;;;;6.13;4.68;;;11.00;99.90;;;;;;5034983;28;20327;-78
2022/08/07 04:59:03;;;;;;;8.60;4.75;;;11.00;99.90;;;;;;5040997;28;20041;-78
2022/08/07 05:01:47;;;;;;;6.43;5.00;;;11.10;99.90;;;;;;5039244;28;20498;-78
2022/08/07 05:04:37;;;;;;;7.53;5.28;;;11.20;99.90;;;;;;5036350;28;20494;-77
2022/08/07 05:07:10;;;;;;;6.40;5.00;;;11.20;99.90;;;;;;5040368;28;20053;-76
2022/08/07 05:09:48;;;;;;;6.93;5.20;;;11.30;99.90;;;;;;5036027;28;20029;-78
2022/08/07 05:12:18;;;;;;;6.13;4.53;;;11.50;99.90;;;;;;5041848;28;20096;-78
2022/08/07 05:14:46;;;;;;;6.18;4.85;;;11.60;99.90;;;;;;5034868;28;20032;-78
2022/08/07 05:17:17;;;;;;;6.25;4.65;;;11.80;99.90;;;;;;5038240;28;20352;-78
2022/08/07 05:19:46;;;;;;;6.85;4.88;;;11.90;99.90;;;;;;5039797;28;20116;-78
2022/08/07 05:22:14;;;;;;;6.53;4.38;;;12.10;99.90;;;;;;5032660;28;20065;-77
2022/08/07 05:24:41;;;;;;;6.80;4.65;;;12.20;99.90;;;;;;5037229;28;20505;-77
2022/08/07 05:27:11;;;;;;;5.97;4.70;;;12.40;99.90;;;;;;5040070;28;20120;-78
2022/08/07 05:29:38;;;;;;;7.47;4.85;;;12.50;99.90;;;;;;5044284;28;20044;-77
2022/08/07 05:32:06;;;;;;;7.82;5.10;;;12.70;99.90;;;;;;5039037;28;20053;-78
2022/08/07 05:34:34;;;;;;;6.10;4.50;;;12.90;99.90;;;;;;5035592;28;20043;-79
2022/08/07 05:37:00;;;;;;;6.05;4.75;;;13.00;99.90;;;;;;5038995;28;20640;-78
2022/08/07 05:39:26;;;;;;;7.03;5.20;;;13.20;99.90;;;;;;5032034;28;20048;-78
2022/08/07 05:41:51;;;;;;;6.63;5.03;;;13.30;99.90;;;;;;5031912;28;20041;-78
2022/08/07 05:44:19;;;;;;;6.20;5.05;;;13.40;99.90;;;;;;5031414;28;20061;-78
2022/08/07 05:46:47;;;;;;;6.25;4.85;;;13.60;99.90;;;;;;5033335;28;20038;-78
2022/08/07 05:49:13;;;;;;;6.35;5.22;;;13.80;99.90;;;;;;5046289;28;20041;-78
2022/08/07 05:51:42;;;;;;;8.55;5.80;;;13.90;99.90;;;;;;5032788;28;20040;-78
2022/08/07 05:54:07;;;;;;;8.90;5.30;;;14.10;99.90;;;;;;5031552;28;20095;-78
2022/08/07 05:56:35;;;;;;;7.15;4.75;;;14.30;99.90;;;;;;5032323;28;20045;-78
2022/08/07 05:59:03;;;;;;;8.15;4.63;;;14.50;99.90;;;;;;5031855;28;20404;-78
2022/08/07 06:01:29;;;;;;;7.93;4.80;;;14.60;99.90;;;;;;5032708;28;20104;-78
2022/08/07 06:03:57;;;;;;;9.13;4.93;;;14.80;99.90;;;;;;5016857;28;20041;-78
2022/08/07 06:06:24;;;;;;;6.47;5.18;;;14.90;99.90;;;;;;5009720;28;20485;-78
2022/08/07 06:08:51;;;;;;;7.82;5.15;;;15.10;99.90;;;;;;5010743;28;20038;-78
2022/08/07 06:11:16;;;;;;;6.30;4.57;;;15.20;99.90;;;;;;5012997;28;20412;-79
2022/08/07 06:13:42;;;;;;;6.85;4.72;;;15.30;99.90;;;;;;5031111;28;20042;-78
2022/08/07 06:16:08;;;;;;;11.57;5.47;;;15.30;99.90;;;;;;5036608;28;20069;-78
2022/08/07 06:18:34;;;;;;;6.10;4.85;;;15.50;99.90;;;;;;5035967;28;20037;-79
2022/08/07 06:21:01;;;;;;;5.43;4.68;;;15.60;99.90;;;;;;5041395;28;20496;-79
2022/08/07 06:23:28;;;;;;;6.05;4.80;;;15.80;99.90;;;;;;5039044;28;20248;-78
2022/08/07 06:25:55;;;;;;;6.82;4.57;;;15.90;99.90;;;;;;5040926;28;20044;-78
2022/08/07 06:28:21;;;;;;;6.97;4.65;;;16.10;99.90;;;;;;5045746;28;20048;-79
2022/08/07 06:30:46;;;;;;;6.07;4.50;;;16.20;99.90;;;;;;5045423;28;20029;-78
2022/08/07 06:33:12;;;;;;;5.63;4.10;;;16.30;99.90;;;;;;5042100;28;20038;-78
2022/08/07 06:35:37;;;;;;;4.88;4.38;;;16.40;99.90;;;;;;5041840;28;20580;-78
2022/08/07 06:38:05;;;;;;;6.40;4.32;;;16.50;99.90;;;;;;5041869;28;20139;-79
2022/08/07 06:40:38;;;;;;;5.20;4.13;;;16.60;99.90;;;;;;5043474;28;20067;-79
2022/08/07 06:43:08;;;;;;;6.60;4.45;;;16.80;99.90;;;;;;5043247;28;20073;-78
2022/08/07 06:45:33;;;;;;;5.03;4.10;;;16.80;99.90;;;;;;5042557;28;20052;-79
2022/08/07 06:47:59;;;;;;;6.28;4.00;;;16.90;99.90;;;;;;5036205;28;20042;-77
2022/08/07 06:50:26;;;;;;;5.65;4.47;;;17.10;99.90;;;;;;5048584;28;20405;-79
2022/08/07 06:52:54;;;;;;;6.05;4.25;;;17.10;99.90;;;;;;5047731;28;20038;-78
2022/08/07 06:55:24;;;;;;;5.75;3.95;;;17.30;99.90;;;;;;5044824;28;20036;-77
2022/08/07 06:57:52;;;;;;;6.13;4.30;;;17.40;99.90;;;;;;5049488;28;20036;-79
2022/08/07 07:00:18;;;;;;;6.63;4.07;;;17.50;99.90;;;;;;5045530;28;20030;-78
2022/08/07 07:02:45;;;;;;;6.00;3.80;;;17.60;99.90;;;;;;5045617;28;20537;-78
2022/08/07 07:05:12;;;;;;;3.78;3.30;;;17.70;99.90;;;;;;5046856;28;20041;-78
2022/08/07 07:07:37;;;;;;;7.45;4.00;;;17.90;99.90;;;;;;5046732;28;20112;-78
2022/08/07 07:10:04;;;;;;;4.05;3.20;;;18.00;99.90;;;;;;5047419;28;20163;-78
2022/08/07 07:12:38;;;;;;;5.03;3.15;;;18.10;99.90;;;;;;5047270;28;20496;-78
2022/08/07 07:15:12;;;;;;;4.53;3.22;;;18.20;99.90;;;;;;5037698;28;20042;-78
2022/08/07 07:17:57;;;;;;;4.55;3.17;;;18.30;99.90;;;;;;5021829;28;20047;-78
2022/08/07 07:20:30;;;;;;;4.32;2.85;;;18.40;99.90;;;;;;5028180;28;20061;-78
2022/08/07 07:22:57;;;;;;;3.17;2.60;;;18.50;99.90;;;;;;5032151;28;20514;-78
2022/08/07 07:25:23;;;;;;;3.42;2.50;;;18.70;99.90;;;;;;5037409;28;20072;-78
2022/08/07 07:28:01;;;;;;;5.13;2.60;;;18.80;99.90;;;;;;5040753;28;20029;-78
2022/08/07 07:30:36;;;;;;;7.40;3.13;;;18.90;99.90;;;;;;5042782;28;20045;-78
2022/08/07 07:33:03;;;;;;;3.70;2.92;;;19.00;99.90;;;;;;5048566;28;20053;-78
2022/08/07 07:35:31;;;;;;;6.32;2.70;;;19.20;99.90;;;;;;5041240;28;20037;-78
2022/08/07 07:37:59;;;;;;;4.32;2.75;;;19.40;99.90;;;;;;5039985;28;20037;-78
2022/08/07 07:40:29;;;;;;;4.95;3.08;;;19.40;99.90;;;;;;5024144;28;20045;-78
2022/08/07 07:42:57;;;;;;;4.63;3.17;;;19.60;99.90;;;;;;5015748;28;20096;-78
2022/08/07 07:45:27;;;;;;;3.70;3.20;;;19.70;99.90;;;;;;5025219;28;20038;-77
2022/08/07 07:47:56;;;;;;;4.03;3.30;;;19.80;99.90;;;;;;5022845;28;20033;-78
2022/08/07 07:50:23;;;;;;;4.22;3.55;;;19.90;99.90;;;;;;5020582;28;20092;-76
2022/08/07 07:52:50;;;;;;;5.10;3.95;;;20.00;99.90;;;;;;5027005;28;20037;-77
2022/08/07 07:55:18;;;;;;;4.15;3.72;;;20.10;99.90;;;;;;5035825;28;20037;-78
2022/08/07 07:57:46;;;;;;;4.20;3.50;;;20.20;99.90;;;;;;5036311;28;20045;-78
2022/08/07 08:00:12;;;;;;;4.18;3.50;;;20.20;99.90;;;;;;5032693;28;20068;-77
2022/08/07 08:02:42;;;;;;;4.88;3.03;;;20.20;99.90;;;;;;5017953;28;20034;-77
2022/08/07 08:05:09;;;;;;;4.15;3.30;;;20.10;99.90;;;;;;5030986;28;20076;-78
2022/08/07 08:07:37;;;;;;;5.70;3.40;;;20.20;99.90;;;;;;5037533;28;20041;-77
2022/08/07 08:10:03;;;;;;;5.07;3.38;;;20.30;99.90;;;;;;5031410;28;20131;-78
2022/08/07 08:12:31;;;;;;;5.50;3.38;;;20.40;99.90;;;;;;5035870;28;20462;-78
2022/08/07 08:14:57;;;;;;;5.40;3.30;;;20.50;99.90;;;;;;5045706;28;20048;-77
2022/08/07 08:17:23;;;;;;;5.15;3.00;;;20.40;99.90;;;;;;5041033;28;20034;-77
2022/08/07 08:19:53;;;;;;;4.88;3.40;;;20.30;99.90;;;;;;5032660;28;20091;-76
2022/08/07 08:27:53;;;;;;;4.57;3.20;;;20.40;99.90;;;;;;5020245;28;20069;-77
2022/08/07 08:30:20;;;;;;;4.07;3.40;;;20.50;99.90;;;;;;5038113;28;20033;-77
2022/08/07 08:32:57;;;;;;;4.97;3.50;;;20.40;99.90;;;;;;5019942;28;20033;-77
2022/08/07 08:35:25;;;;;;;5.30;3.75;;;20.20;99.90;;;;;;5042342;28;20033;-77
2022/08/07 08:37:58;;;;;;;5.15;3.13;;;19.90;99.90;;;;;;5038169;28;20038;-75
2022/08/07 08:40:31;;;;;;;4.30;3.20;;;19.80;99.90;;;;;;5036092;28;20090;-77
2022/08/07 08:43:13;;;;;;;3.92;2.80;;;19.50;99.90;;;;;;5040474;28;20136;-77
2022/08/07 08:45:48;;;;;;;3.92;3.22;;;19.50;99.90;;;;;;5026080;28;20120;-77
2022/08/07 08:48:23;;;;;;;4.07;3.30;;;19.50;99.90;;;;;;5028608;28;20073;-77
2022/08/07 08:51:23;;;;;;;4.38;3.42;;;19.50;99.90;;;;;;5033994;28;20376;-78
2022/08/07 08:54:09;;;;;;;5.13;3.30;;;19.30;99.90;;;;;;5030627;28;20033;-77
2022/08/07 08:56:39;;;;;;;6.82;4.00;;;19.20;99.90;;;;;;5030342;28;20095;-77
2022/08/07 08:59:19;;;;;;;4.03;3.20;;;19.00;99.90;;;;;;5033289;28;20037;-78
2022/08/07 09:01:59;;;;;;;8.55;3.00;;;19.00;99.90;;;;;;5019616;28;20171;-77
2022/08/07 09:04:57;;;;;;;4.72;3.30;;;19.00;99.90;;;;;;5031903;28;20518;-78
2022/08/07 09:07:22;;;;;;;5.63;3.22;;;19.00;99.90;;;;;;5037517;28;20040;-78
2022/08/07 09:10:06;;;;;;;6.07;3.15;;;19.20;99.90;;;;;;5031760;28;20033;-76
2022/08/07 09:12:57;;;;;;;5.43;2.90;;;19.40;99.90;;;;;;5030890;28;20555;-76
2022/08/07 09:15:25;;;;;;;3.65;3.13;;;19.70;99.90;;;;;;5030082;28;20095;-77
2022/08/07 09:17:57;;;;;;;4.68;2.83;;;19.90;99.90;;;;;;5030705;28;20037;-69
2022/08/07 09:20:33;;;;;;;5.72;2.72;;;20.20;99.90;;;;;;5030557;28;20514;-77
2022/08/07 09:23:12;;;;;;;4.47;2.90;;;20.40;99.90;;;;;;5019229;28;20045;-75
2022/08/07 09:26:20;;;;;;;4.63;2.80;;;20.70;99.90;;;;;;5026178;28;20447;-75
2022/08/07 09:28:52;;;;;;;4.82;3.13;;;20.80;99.90;;;;;;5030707;28;20115;-74
2022/08/07 09:31:41;;;;;;;3.85;2.88;;;21.00;99.90;;;;;;5029715;28;20033;-76
2022/08/07 09:34:20;;;;;;;3.80;2.80;;;21.10;99.90;;;;;;5034303;28;20064;-77
2022/08/07 09:36:56;;;;;;;4.18;3.38;;;21.10;99.90;;;;;;5034104;28;20051;-77
2022/08/07 09:39:42;;;;;;;5.78;2.85;;;21.00;99.50;;;;;;5031784;28;20045;-77
2022/08/07 09:42:31;;;;;;;6.25;2.80;;;20.80;99.70;;;;;;5038896;28;20068;-74
2022/08/07 09:45:17;;;;;;;6.55;2.78;;;20.90;99.90;;;;;;5029628;28;20041;-75
2022/08/07 09:48:08;;;;;;;13.13;2.97;;;21.00;99.90;;;;;;5030325;28;20057;-75
2022/08/07 09:51:12;;;;;;;5.07;2.92;;;21.10;99.30;;;;;;5039071;28;20033;-75
2022/08/07 09:53:42;;;;;;;4.32;3.00;;;21.00;98.40;;;;;;5011985;28;20045;-75
2022/08/07 09:56:30;;;;;;;3.30;3.00;;;20.80;98.60;;;;;;5029658;28;20133;-76
2022/08/07 09:59:17;;;;;;;4.60;2.50;;;20.80;99.20;;;;;;5030407;28;20033;-74
2022/08/07 10:01:45;;;;;;;4.35;2.70;;;20.80;99.20;;;;;;5030578;28;20037;-73
2022/08/07 10:04:20;;;;;;;9.15;4.25;;;20.80;99.10;;;;;;5030778;28;20116;-77
2022/08/07 10:06:58;;;;;;;3.97;2.72;;;20.90;99.10;;;;;;5033807;28;20079;-76
2022/08/07 10:09:57;;;;;;;3.78;2.72;;;21.10;99.20;;;;;;5037489;28;20074;-75
2022/08/07 10:12:41;;;;;;;3.72;2.78;;;21.10;98.70;;;;;;5038547;28;20227;-76
2022/08/07 10:15:25;;;;;;;3.03;2.25;;;21.00;98.20;;;;;;5026979;28;20445;-75
2022/08/07 10:18:07;;;;;;;3.55;2.60;;;21.20;98.70;;;;;;5036232;28;20048;-75
2022/08/07 10:21:09;;;;;;;3.05;2.30;;;21.20;96.10;;;;;;5027908;28;20712;-75
2022/08/07 10:24:17;;;;;;;3.67;2.38;;;21.20;95.00;;;;;;5016816;28;20156;-74
2022/08/07 10:27:11;;;;;;;3.15;2.40;;;21.20;96.10;;;;;;5036556;28;20132;-75
2022/08/07 10:29:59;;;;;;;2.50;2.13;;;21.30;96.90;;;;;;5029191;28;20122;-74
2022/08/07 10:32:39;;;;;;;3.78;2.35;;;21.60;97.00;;;;;;5029248;28;20487;-76
2022/08/07 10:35:25;;;;;;;3.88;2.47;;;21.70;96.70;;;;;;5028345;28;20041;-75
2022/08/07 10:38:10;;;;;;;4.88;2.53;;;21.80;96.90;;;;;;5030160;28;20382;-76
2022/08/07 10:40:47;;;;;;;4.68;2.38;;;21.60;96.20;;;;;;5031047;28;20045;-75
2022/08/07 10:43:26;;;;;;;4.68;2.40;;;21.50;96.00;;;;;;5031126;28;20048;-75
2022/08/07 10:45:58;;;;;;;5.07;2.30;;;21.60;96.20;;;;;;5030137;28;20068;-74
2022/08/07 10:48:43;;;;;;;5.78;2.28;;;21.60;95.40;;;;;;5031001;28;20048;-73
2022/08/07 10:51:24;;;;;;;3.95;2.22;;;21.70;96.40;;;;;;5030996;28;20045;-74
2022/08/07 10:54:02;;;;;;;3.58;2.30;;;21.90;95.50;;;;;;5030227;28;20095;-75
2022/08/07 10:56:35;;;;;;;2.92;1.90;;;21.90;96.10;;;;;;5030992;28;20053;-75
2022/08/07 10:59:29;;;;;;;2.92;2.17;;;21.80;95.80;;;;;;5030432;28;20041;-75
2022/08/07 11:02:17;;;;;;;2.90;2.10;;;21.90;94.50;;;;;;5029842;28;20045;-74
2022/08/07 11:05:14;;;;;;;2.65;1.95;;;22.10;95.90;;;;;;5029801;28;20038;-74
2022/08/07 11:07:49;;;;;;;2.70;1.88;;;22.30;93.80;;;;;;5029832;28;20041;-74
2022/08/07 11:10:33;;;;;;;3.28;1.98;;;22.60;95.30;;;;;;5029436;28;20111;-74
2022/08/07 11:13:09;;;;;;;2.05;1.50;;;22.80;94.50;;;;;;5029454;28;20045;-74
2022/08/07 11:15:39;;;;;;;2.08;1.58;;;22.90;93.80;;;;;;5030167;28;20459;-74
2022/08/07 11:18:20;;;;;;;3.35;1.60;;;22.80;92.90;;;;;;5033971;28;20081;-74
2022/08/07 11:20:57;;;;;;;2.67;1.50;;;23.00;93.20;;;;;;5033903;28;20038;-74
2022/08/07 11:23:50;;;;;;;1.52;1.40;;;23.10;92.80;;;;;;5034146;28;20132;-74
2022/08/07 11:26:31;;;;;;;2.20;1.20;;;23.40;93.00;;;;;;5034215;28;20091;-73
2022/08/07 11:29:34;;;;;;;2.67;1.40;;;23.50;92.20;;;;;;5033756;28;20402;-74
2022/08/07 11:32:09;;;;;;;2.00;1.80;;;23.60;90.90;;;;;;5033496;28;20073;-74
2022/08/07 11:34:46;;;;;;;3.08;2.00;;;23.50;91.90;;;;;;5032449;28;20115;-74
2022/08/07 11:37:33;;;;;;;4.30;1.80;;;23.40;92.50;;;;;;5033913;28;20037;-73
2022/08/07 11:40:02;;;;;;;2.70;1.73;;;23.10;93.00;;;;;;5033311;28;20403;-74
2022/08/07 11:42:52;;;;;;;2.67;1.80;;;22.90;93.10;;;;;;5034003;28;20065;-74
2022/08/07 11:45:33;;;;;;;2.58;1.67;;;23.00;93.80;;;;;;5033132;28;20042;-75
2022/08/07 11:48:15;;;;;;;3.97;2.10;;;22.80;93.70;;;;;;5033553;28;20034;-74
2022/08/07 11:51:13;;;;;;;3.35;2.13;;;22.80;93.30;;;;;;5033634;28;20044;-74
2022/08/07 11:54:14;;;;;;;4.25;1.83;;;22.80;93.10;;;;;;5033208;28;20507;-74
2022/08/07 11:57:22;;;;;;;2.78;1.77;;;22.90;93.30;;;;;;5032432;28;20408;-73
2022/08/07 11:59:54;;;;;;;2.30;1.70;;;23.20;93.40;;;;;;5027700;28;20065;-73
2022/08/07 12:02:53;;;;;;;2.88;1.77;;;23.30;93.10;;;;;;5033798;28;20124;-74
2022/08/07 12:05:56;;;;;;;2.70;1.80;;;23.90;93.30;;;;;;5032732;28;20045;-75
2022/08/07 12:08:54;;;;;;;2.40;1.60;;;24.30;92.30;;;;;;5032528;28;20091;-74
2022/08/07 12:11:29;;;;;;;2.83;1.50;;;24.10;91.60;;;;;;5032613;28;20084;-74
2022/08/07 12:14:00;;;;;;;3.55;1.80;;;23.70;92.20;;;;;;5032797;28;20448;-75
2022/08/07 12:16:34;;;;;;;2.30;1.75;;;23.20;92.50;;;;;;5033472;28;20443;-76
2022/08/07 12:19:15;;;;;;;2.75;2.08;;;22.70;92.50;;;;;;5033159;28;20049;-75
2022/08/07 12:21:59;;;;;;;3.20;1.85;;;22.40;93.20;;;;;;5032598;28;20041;-74
2022/08/07 12:27:40;;;;;;;3.22;1.95;;;22.20;93.80;;;;;;5032341;28;20146;-74
2022/08/07 12:30:08;;;;;;;1.98;1.67;;;22.80;93.10;;;;;;5032880;28;20037;-74
2022/08/07 12:32:57;;;;;;;2.25;1.52;;;23.40;93.30;;;;;;5033325;28;20111;-74
2022/08/07 12:35:24;;;;;;;2.97;1.35;;;23.50;92.10;;;;;;5032440;28;20037;-75
2022/08/07 12:37:51;;;;;;;2.28;1.38;;;23.30;91.10;;;;;;5032841;28;20044;-75
2022/08/07 12:40:21;;;;;;;2.30;1.48;;;23.30;91.10;;;;;;5032384;28;20196;-74
2022/08/07 12:42:50;;;;;;;3.20;1.40;;;23.20;91.60;;;;;;5032968;28;20099;-74
2022/08/07 12:45:21;;;;;;;2.55;1.35;;;23.00;91.10;;;;;;5031923;28;20122;-76
2022/08/07 12:48:01;;;;;;;3.78;2.00;;;22.70;91.30;;;;;;5032618;28;20041;-74
2022/08/07 12:50:53;;;;;;;2.95;2.10;;;22.50;92.80;;;;;;5026432;28;20043;-74
2022/08/07 12:53:40;;;;;;;4.28;2.05;;;22.30;93.40;;;;;;5024288;28;20213;-75
2022/08/07 12:56:29;;;;;;;3.38;2.50;;;22.20;93.60;;;;;;5019339;28;20041;-75
2022/08/07 12:58:56;;;;;;;5.15;2.58;;;22.10;94.50;;;;;;5028513;28;20036;-74
2022/08/07 13:01:28;;;;;;;3.33;2.00;;;22.10;94.30;;;;;;5028808;28;20041;-74
2022/08/07 13:04:25;;;;;;;3.67;2.03;;;22.30;94.50;;;;;;5034280;28;20052;-75
2022/08/07 13:07:29;;;;;;;5.03;2.30;;;22.50;94.80;;;;;;5038160;28;20105;-76
2022/08/07 13:10:22;;;;;;;5.15;2.30;;;22.60;94.00;;;;;;5029149;28;20483;-76
2022/08/07 13:13:15;;;;;;;2.95;2.03;;;22.60;94.40;;;;;;5029397;28;20041;-77
2022/08/07 13:15:59;;;;;;;3.63;2.33;;;22.70;94.30;;;;;;5029231;28;20052;-77
2022/08/07 13:18:42;;;;;;;3.83;2.00;;;23.10;94.50;;;;;;5028893;28;20503;-75
2022/08/07 13:21:13;;;;;;;3.67;2.03;;;23.70;94.00;;;;;;5031544;28;20518;-77
2022/08/07 13:24:05;;;;;;;3.35;2.08;;;24.50;94.10;;;;;;5028702;28;20056;-76
2022/08/07 13:26:45;;;;;;;2.80;2.15;;;25.10;92.70;;;;;;5028593;28;20033;-77